createdAt,value
2023-02-19T00:00:09.627Z,48.69
2023-02-19T00:01:18.271Z,49.80
2023-02-19T00:02:14.852Z,48.29
2023-02-19T00:03:11.589Z,49.24
2023-02-19T00:04:14.704Z,49.00
2023-02-19T00:05:11.371Z,49.49
2023-02-19T00:06:10.538Z,50.36
2023-02-19T00:07:07.169Z,49.70
2023-02-19T00:08:04.099Z,49.19
2023-02-19T00:09:01.432Z,49.23
2023-02-19T00:09:58.021Z,50.25
2023-02-19T00:10:54.717Z,51.41
2023-02-19T00:11:51.346Z,50.65
2023-02-19T00:12:47.948Z,50.55
2023-02-19T00:13:47.274Z,50.27
2023-02-19T00:14:43.982Z,49.47
2023-02-19T00:15:40.582Z,49.78
2023-02-19T00:16:39.598Z,50.34
2023-02-19T00:17:36.136Z,49.92
2023-02-19T00:18:32.775Z,49.53
2023-02-19T00:19:29.454Z,49.56
2023-02-19T00:20:26.092Z,49.79
2023-02-19T00:21:23.438Z,49.85
2023-02-19T00:22:20.051Z,50.30
2023-02-19T00:23:16.746Z,50.36
2023-02-19T00:24:14.792Z,50.24
2023-02-19T00:25:11.363Z,49.83
2023-02-19T00:26:18.264Z,49.88
2023-02-19T00:27:15.867Z,50.41
2023-02-19T00:28:12.409Z,49.97
2023-02-19T00:29:12.981Z,50.36
2023-02-19T00:30:10.158Z,51.09
2023-02-19T00:31:16.246Z,50.78
2023-02-19T00:32:12.976Z,51.24
2023-02-19T00:33:09.622Z,50.57
2023-02-19T00:34:06.901Z,50.92
2023-02-19T00:35:04.484Z,51.22
2023-02-19T00:36:03.161Z,49.79
2023-02-19T00:36:59.881Z,50.29
2023-02-19T00:37:56.495Z,49.59
2023-02-19T00:38:53.502Z,49.81
2023-02-19T00:39:50.187Z,49.98
2023-02-19T00:40:46.755Z,49.45
2023-02-19T00:41:44.049Z,49.60
2023-02-19T00:42:40.614Z,49.43
2023-02-19T00:43:37.187Z,49.53
2023-02-19T00:44:33.764Z,49.92
2023-02-19T00:45:30.404Z,50.22
2023-02-19T00:46:28.221Z,49.81
2023-02-19T00:47:24.815Z,49.54
2023-02-19T00:48:21.432Z,49.50
2023-02-19T00:49:21.613Z,50.42
2023-02-19T00:50:18.295Z,50.18
2023-02-19T00:51:15.337Z,50.88
2023-02-19T00:52:11.951Z,50.67
2023-02-19T00:53:08.614Z,50.88
2023-02-19T00:54:06.115Z,51.49
2023-02-19T00:55:02.906Z,51.51
2023-02-19T00:55:59.480Z,50.87
2023-02-19T00:56:58.768Z,51.51
2023-02-19T00:57:55.643Z,50.62
2023-02-19T00:58:52.722Z,50.65
2023-02-19T00:59:49.345Z,50.95
2023-02-19T01:00:45.908Z,51.79
2023-02-19T01:01:44.698Z,51.26
2023-02-19T01:02:41.451Z,51.21
2023-02-19T01:03:39.029Z,51.74
2023-02-19T01:04:35.775Z,52.35
2023-02-19T01:05:32.456Z,52.15
2023-02-19T01:06:30.820Z,52.43
2023-02-19T01:07:27.534Z,52.24
2023-02-19T01:08:24.209Z,52.12
2023-02-19T01:09:20.850Z,52.31
2023-02-19T01:10:17.410Z,52.50
2023-02-19T01:11:15.168Z,52.25
2023-02-19T01:12:11.802Z,53.07
2023-02-19T01:13:08.688Z,52.87
2023-02-19T01:14:05.573Z,52.90
2023-02-19T01:15:02.258Z,53.01
2023-02-19T01:16:12.951Z,53.29
2023-02-19T01:17:09.642Z,53.21
2023-02-19T01:18:06.625Z,53.79
2023-02-19T01:19:03.536Z,54.17
2023-02-19T01:20:00.142Z,54.55
2023-02-19T01:20:56.787Z,54.37
2023-02-19T01:21:53.426Z,54.98
2023-02-19T01:22:50.057Z,55.40
2023-02-19T01:23:47.122Z,56.46
2023-02-19T01:24:43.729Z,55.37
2023-02-19T01:25:42.266Z,54.03
2023-02-19T01:26:38.850Z,53.74
2023-02-19T01:27:35.435Z,53.30
2023-02-19T01:28:32.127Z,54.18
2023-02-19T01:29:28.760Z,54.24
2023-02-19T01:30:25.423Z,54.01
2023-02-19T01:31:24.200Z,53.88
2023-02-19T01:32:21.065Z,53.51
2023-02-19T01:33:17.807Z,53.14
2023-02-19T01:34:14.377Z,53.18
2023-02-19T01:35:10.900Z,53.42
2023-02-19T01:36:07.759Z,53.45
2023-02-19T01:37:04.373Z,53.23
2023-02-19T01:38:00.977Z,53.75
2023-02-19T01:39:00.517Z,53.35
2023-02-19T01:39:57.132Z,53.34
2023-02-19T01:40:59.505Z,53.38
2023-02-19T01:41:56.113Z,53.93
2023-02-19T01:42:52.890Z,53.72
2023-02-19T01:44:28.032Z,54.35
2023-02-19T01:45:30.777Z,54.08
2023-02-19T01:46:38.980Z,54.46
2023-02-19T01:47:35.650Z,54.14
2023-02-19T01:48:36.847Z,54.87
2023-02-19T01:49:40.505Z,54.63
2023-02-19T01:50:59.983Z,55.05
2023-02-19T01:52:09.883Z,54.80
2023-02-19T01:53:11.246Z,55.22
2023-02-19T01:54:12.253Z,55.89
2023-02-19T01:55:12.784Z,56.59
2023-02-19T01:56:10.304Z,54.79
2023-02-19T01:57:11.285Z,54.73
2023-02-19T01:58:09.492Z,55.31
2023-02-19T01:59:07.525Z,53.96
2023-02-19T02:00:09.946Z,54.54
2023-02-19T02:01:08.660Z,54.54
2023-02-19T02:02:06.153Z,53.87
2023-02-19T02:03:04.143Z,53.83
2023-02-19T02:04:01.119Z,53.37
2023-02-19T02:05:00.283Z,53.77
2023-02-19T02:06:05.412Z,54.05
2023-02-19T02:07:24.814Z,54.07
2023-02-19T02:08:40.039Z,53.43
2023-02-19T02:09:55.100Z,54.26
2023-02-19T02:10:52.834Z,53.63
2023-02-19T02:11:52.302Z,53.45
2023-02-19T02:12:50.668Z,53.97
2023-02-19T02:13:48.533Z,55.07
2023-02-19T02:14:47.643Z,55.39
2023-02-19T02:16:16.467Z,54.40
2023-02-19T02:17:29.688Z,54.67
2023-02-19T02:18:35.913Z,55.15
2023-02-19T02:19:56.303Z,56.36
2023-02-19T02:20:59.460Z,56.53
2023-02-19T02:22:06.451Z,56.98
2023-02-19T02:23:54.875Z,57.87
2023-02-19T02:25:12.941Z,57.89
2023-02-19T02:26:21.248Z,57.18
2023-02-19T02:27:39.348Z,58.12
2023-02-19T02:29:20.077Z,57.70
2023-02-19T02:30:32.575Z,57.25
2023-02-19T02:32:04.290Z,56.62
2023-02-19T02:33:32.527Z,57.48
2023-02-19T02:34:41.677Z,56.51
2023-02-19T02:36:01.139Z,57.48
2023-02-19T02:36:58.551Z,58.17
2023-02-19T02:38:00.672Z,58.72
2023-02-19T02:38:58.413Z,59.46
2023-02-19T02:39:58.312Z,59.27
2023-02-19T02:40:55.988Z,59.13
2023-02-19T02:42:16.795Z,59.17
2023-02-19T02:43:13.955Z,59.23
2023-02-19T02:44:10.886Z,59.17
2023-02-19T02:45:39.876Z,59.55
2023-02-19T02:46:40.324Z,60.61
2023-02-19T02:47:44.742Z,57.78
2023-02-19T02:48:56.757Z,58.37
2023-02-19T02:50:05.273Z,58.12
2023-02-19T02:51:01.854Z,56.73
2023-02-19T02:52:21.240Z,57.29
2023-02-19T02:53:47.271Z,58.70
2023-02-19T02:55:02.845Z,60.13
2023-02-19T02:56:01.009Z,60.20
2023-02-19T02:56:59.327Z,60.75
2023-02-19T02:57:56.119Z,61.04
2023-02-19T02:58:56.261Z,61.78
2023-02-19T02:59:52.952Z,61.19
2023-02-19T03:01:15.480Z,61.62
2023-02-19T03:02:19.128Z,60.85
2023-02-19T03:03:19.785Z,61.09
2023-02-19T03:04:28.354Z,61.74
2023-02-19T03:05:45.996Z,61.44
2023-02-19T03:06:45.128Z,61.17
2023-02-19T03:07:47.667Z,60.69
2023-02-19T03:08:47.670Z,60.24
2023-02-19T03:09:44.599Z,60.41
2023-02-19T03:10:47.481Z,59.79
2023-02-19T03:12:07.920Z,60.32
2023-02-19T03:13:26.764Z,60.92
2023-02-19T03:14:50.223Z,59.50
2023-02-19T03:16:02.615Z,58.81
2023-02-19T03:17:25.095Z,58.91
2023-02-19T03:18:42.230Z,59.73
2023-02-19T03:19:43.491Z,59.14
2023-02-19T03:20:45.621Z,58.46
2023-02-19T03:21:45.576Z,58.53
2023-02-19T03:22:44.846Z,57.42
2023-02-19T03:24:03.426Z,56.76
2023-02-19T03:25:38.822Z,57.32
2023-02-19T03:26:38.769Z,55.23
2023-02-19T03:27:38.527Z,54.53
2023-02-19T03:28:59.399Z,54.93
2023-02-19T03:30:01.880Z,55.66
2023-02-19T03:30:58.436Z,55.48
2023-02-19T03:32:03.788Z,54.34
2023-02-19T03:33:08.280Z,54.83
2023-02-19T03:34:10.399Z,53.97
2023-02-19T03:35:11.656Z,53.94
2023-02-19T03:36:15.410Z,55.45
2023-02-19T03:37:29.859Z,57.04
2023-02-19T03:38:38.000Z,56.79
2023-02-19T03:39:44.379Z,56.62
2023-02-19T03:40:58.814Z,56.30
2023-02-19T03:41:55.397Z,55.54
2023-02-19T03:43:21.795Z,54.61
2023-02-19T03:45:02.615Z,53.35
2023-02-19T03:46:08.256Z,53.52
2023-02-19T03:47:16.000Z,54.63
2023-02-19T03:48:30.628Z,56.16
2023-02-19T03:49:41.518Z,55.83
2023-02-19T03:50:50.447Z,56.14
2023-02-19T03:51:55.008Z,56.76
2023-02-19T03:53:12.216Z,56.43
2023-02-19T03:54:18.333Z,55.72
2023-02-19T03:55:26.396Z,56.26
2023-02-19T03:56:32.165Z,55.91
2023-02-19T03:57:44.468Z,55.85
2023-02-19T03:59:17.683Z,54.72
2023-02-19T04:00:23.183Z,55.44
2023-02-19T04:01:28.851Z,56.18
2023-02-19T04:02:42.925Z,56.79
2023-02-19T04:03:56.853Z,55.50
2023-02-19T04:05:08.165Z,55.63
2023-02-19T04:06:12.073Z,55.86
2023-02-19T04:07:08.709Z,55.46
2023-02-19T04:08:13.649Z,56.01
2023-02-19T04:09:13.099Z,56.80
2023-02-19T04:10:10.119Z,55.60
2023-02-19T04:11:08.037Z,55.37
2023-02-19T04:12:06.898Z,55.60
2023-02-19T04:13:10.562Z,54.94
2023-02-19T04:14:24.891Z,54.60
2023-02-19T04:15:30.251Z,55.25
2023-02-19T04:16:29.528Z,55.31
2023-02-19T04:17:52.188Z,55.38
2023-02-19T04:18:54.545Z,55.11
2023-02-19T04:19:52.188Z,54.51
2023-02-19T04:20:48.994Z,54.04
2023-02-19T04:21:47.086Z,54.23
2023-02-19T04:22:44.630Z,54.13
2023-02-19T04:23:44.786Z,55.05
2023-02-19T04:24:46.747Z,53.85
2023-02-19T04:25:47.056Z,54.14
2023-02-19T04:26:45.175Z,53.83
2023-02-19T04:27:44.847Z,54.20
2023-02-19T04:28:43.082Z,55.35
2023-02-19T04:29:39.862Z,55.24
2023-02-19T04:30:36.610Z,55.59
2023-02-19T04:31:35.833Z,55.47
2023-02-19T04:32:32.487Z,55.37
2023-02-19T04:33:29.016Z,54.73
2023-02-19T04:34:25.608Z,54.37
2023-02-19T04:35:22.216Z,54.62
2023-02-19T04:36:18.821Z,54.22
2023-02-19T04:37:15.454Z,54.86
2023-02-19T04:38:13.777Z,54.81
2023-02-19T04:39:10.456Z,55.10
2023-02-19T04:40:07.570Z,55.24
2023-02-19T04:41:04.256Z,55.53
2023-02-19T04:42:00.855Z,55.35
2023-02-19T04:42:57.621Z,55.63
2023-02-19T04:43:54.262Z,55.44
2023-02-19T04:44:50.923Z,55.76
2023-02-19T04:45:47.508Z,56.29
2023-02-19T04:46:44.109Z,56.62
2023-02-19T04:47:40.766Z,56.21
2023-02-19T04:48:37.633Z,56.60
2023-02-19T04:49:34.214Z,57.15
2023-02-19T04:50:30.879Z,57.12
2023-02-19T04:51:27.686Z,58.94
2023-02-19T04:52:24.272Z,59.90
2023-02-19T04:53:20.860Z,60.58
2023-02-19T04:54:17.461Z,61.14
2023-02-19T04:55:14.289Z,60.71
2023-02-19T04:56:13.830Z,60.65
2023-02-19T04:57:10.437Z,60.86
2023-02-19T04:58:07.057Z,61.60
2023-02-19T04:59:03.890Z,62.10
2023-02-19T05:00:00.538Z,62.72
2023-02-19T05:00:57.255Z,63.02
2023-02-19T05:01:53.910Z,62.76
2023-02-19T05:02:50.546Z,62.56
2023-02-19T05:03:47.108Z,63.27
2023-02-19T05:04:43.738Z,63.35
2023-02-19T05:05:40.302Z,63.11
2023-02-19T05:06:36.927Z,63.88
2023-02-19T05:07:33.918Z,64.31
2023-02-19T05:08:30.701Z,63.76
2023-02-19T05:09:27.276Z,64.55
2023-02-19T05:10:23.876Z,64.95
2023-02-19T05:11:20.501Z,64.69
2023-02-19T05:12:17.113Z,64.93
2023-02-19T05:13:13.802Z,65.14
2023-02-19T05:14:10.421Z,65.43
2023-02-19T05:15:07.297Z,65.75
2023-02-19T05:16:10.404Z,65.62
2023-02-19T05:17:07.028Z,65.04
2023-02-19T05:18:04.473Z,64.56
2023-02-19T05:19:01.077Z,64.22
2023-02-19T05:19:57.640Z,64.22
2023-02-19T05:20:54.372Z,65.42
2023-02-19T05:21:50.992Z,66.10
2023-02-19T05:22:47.607Z,66.65
2023-02-19T05:23:44.522Z,66.28
2023-02-19T05:24:41.101Z,65.51
2023-02-19T05:25:37.634Z,66.20
2023-02-19T05:26:34.511Z,65.74
2023-02-19T05:27:31.723Z,66.30
2023-02-19T05:28:31.337Z,66.09
2023-02-19T05:29:28.089Z,64.98
2023-02-19T05:30:24.727Z,64.78
2023-02-19T05:31:21.973Z,64.66
2023-02-19T05:32:18.657Z,64.45
2023-02-19T05:33:16.861Z,65.19
2023-02-19T05:34:13.466Z,65.42
2023-02-19T05:35:10.028Z,65.41
2023-02-19T05:36:10.610Z,65.75
2023-02-19T05:37:07.224Z,66.28
2023-02-19T05:38:05.886Z,66.73
2023-02-19T05:39:02.759Z,66.79
2023-02-19T05:39:59.318Z,66.67
2023-02-19T05:40:55.927Z,66.16
2023-02-19T05:41:52.493Z,66.50
2023-02-19T05:42:49.090Z,66.93
2023-02-19T05:43:47.395Z,66.59
2023-02-19T05:44:44.114Z,66.59
2023-02-19T05:45:41.268Z,66.84
2023-02-19T05:46:37.979Z,66.57
2023-02-19T05:47:34.589Z,66.30
2023-02-19T05:48:31.204Z,66.01
2023-02-19T05:49:27.989Z,66.04
2023-02-19T05:50:24.533Z,66.09
2023-02-19T05:51:23.455Z,65.23
2023-02-19T05:52:20.033Z,64.98
2023-02-19T05:53:16.619Z,64.93
2023-02-19T05:54:13.216Z,64.48
2023-02-19T05:55:11.370Z,64.71
2023-02-19T05:56:27.099Z,64.35
2023-02-19T05:57:23.722Z,64.26
2023-02-19T05:58:20.259Z,64.34
2023-02-19T05:59:19.695Z,64.11
2023-02-19T06:00:18.542Z,63.73
2023-02-19T06:01:18.247Z,63.58
2023-02-19T06:02:14.943Z,63.26
2023-02-19T06:03:11.520Z,62.91
2023-02-19T06:04:09.453Z,62.73
2023-02-19T06:05:07.029Z,62.79
2023-02-19T06:06:03.920Z,62.58
2023-02-19T06:07:00.550Z,62.58
2023-02-19T06:07:57.164Z,62.37
2023-02-19T06:08:54.066Z,62.38
2023-02-19T06:09:51.736Z,62.20
2023-02-19T06:10:48.318Z,62.13
2023-02-19T06:11:45.215Z,62.32
2023-02-19T06:12:41.770Z,61.79
2023-02-19T06:13:38.363Z,61.58
2023-02-19T06:14:34.913Z,62.30
2023-02-19T06:15:31.490Z,61.68
2023-02-19T06:16:28.273Z,61.19
2023-02-19T06:17:24.995Z,60.65
2023-02-19T06:18:21.674Z,60.42
2023-02-19T06:19:18.456Z,59.96
2023-02-19T06:20:15.251Z,59.47
2023-02-19T06:21:13.094Z,60.08
2023-02-19T06:22:10.058Z,60.52
2023-02-19T06:23:06.662Z,60.36
2023-02-19T06:24:07.920Z,60.17
2023-02-19T06:25:04.938Z,59.83
2023-02-19T06:26:13.319Z,59.56
2023-02-19T06:27:10.199Z,59.51
2023-02-19T06:28:06.879Z,59.72
2023-02-19T06:29:03.929Z,58.77
2023-02-19T06:30:00.571Z,58.91
2023-02-19T06:30:59.302Z,58.87
2023-02-19T06:31:55.989Z,59.59
2023-02-19T06:32:54.368Z,59.59
2023-02-19T06:33:51.045Z,59.65
2023-02-19T06:34:47.678Z,60.04
2023-02-19T06:35:44.344Z,60.28
2023-02-19T06:36:41.050Z,59.39
2023-02-19T06:37:37.743Z,59.18
2023-02-19T06:38:34.324Z,58.71
2023-02-19T06:39:31.005Z,58.65
2023-02-19T06:40:27.589Z,58.59
2023-02-19T06:41:24.136Z,59.54
2023-02-19T06:42:20.763Z,60.41
2023-02-19T06:43:17.430Z,60.72
2023-02-19T06:44:14.022Z,59.29
2023-02-19T06:45:10.934Z,58.78
2023-02-19T06:46:08.452Z,58.04
2023-02-19T06:47:05.091Z,57.97
2023-02-19T06:48:01.716Z,58.14
2023-02-19T06:48:58.394Z,58.04
2023-02-19T06:49:55.040Z,58.68
2023-02-19T06:50:51.596Z,58.38
2023-02-19T06:51:48.287Z,58.60
2023-02-19T06:52:44.873Z,59.06
2023-02-19T06:53:41.457Z,59.11
2023-02-19T06:54:38.061Z,58.47
2023-02-19T06:55:34.627Z,58.39
2023-02-19T06:56:37.617Z,58.35
2023-02-19T06:57:34.187Z,58.58
2023-02-19T06:58:31.363Z,58.35
2023-02-19T06:59:28.106Z,57.51
2023-02-19T07:00:24.800Z,56.96
2023-02-19T07:01:23.012Z,56.71
2023-02-19T07:02:19.666Z,56.04
2023-02-19T07:03:16.233Z,56.48
2023-02-19T07:04:12.853Z,56.35
2023-02-19T07:05:09.481Z,56.29
2023-02-19T07:06:06.383Z,56.43
2023-02-19T07:07:03.005Z,55.52
2023-02-19T07:07:59.596Z,55.90
2023-02-19T07:08:58.033Z,55.47
2023-02-19T07:09:54.644Z,56.13
2023-02-19T07:10:58.625Z,55.98
2023-02-19T07:11:55.222Z,56.05
2023-02-19T07:12:51.820Z,55.94
2023-02-19T07:13:48.362Z,55.81
2023-02-19T07:14:44.947Z,55.84
2023-02-19T07:15:41.525Z,56.24
2023-02-19T07:16:39.410Z,55.41
2023-02-19T07:17:36.219Z,55.27
2023-02-19T07:18:32.860Z,55.54
2023-02-19T07:19:29.464Z,55.30
2023-02-19T07:20:26.061Z,54.92
2023-02-19T07:21:22.760Z,54.17
2023-02-19T07:22:19.299Z,54.36
2023-02-19T07:23:15.890Z,54.85
2023-02-19T07:24:12.906Z,55.39
2023-02-19T07:25:09.553Z,54.88
2023-02-19T07:26:10.356Z,54.25
2023-02-19T07:27:06.913Z,54.60
2023-02-19T07:28:03.641Z,54.72
2023-02-19T07:29:00.545Z,55.13
2023-02-19T07:29:57.438Z,55.23
2023-02-19T07:30:57.648Z,55.41
2023-02-19T07:31:54.330Z,54.63
2023-02-19T07:32:50.950Z,54.30
2023-02-19T07:33:48.233Z,54.10
2023-02-19T07:34:44.790Z,53.20
2023-02-19T07:35:48.417Z,53.85
2023-02-19T07:36:45.008Z,53.07
2023-02-19T07:37:41.836Z,53.66
2023-02-19T07:38:38.587Z,54.35
2023-02-19T07:39:35.226Z,53.53
2023-02-19T07:40:31.826Z,54.02
2023-02-19T07:41:28.493Z,53.63
2023-02-19T07:42:25.060Z,53.50
2023-02-19T07:43:22.802Z,53.14
2023-02-19T07:44:19.345Z,52.89
2023-02-19T07:45:16.137Z,53.14
2023-02-19T07:46:14.264Z,52.77
2023-02-19T07:47:10.921Z,52.97
2023-02-19T07:48:07.492Z,53.88
2023-02-19T07:49:04.263Z,52.82
2023-02-19T07:50:00.837Z,53.09
2023-02-19T07:50:59.748Z,53.74
2023-02-19T07:51:56.364Z,54.49
2023-02-19T07:52:52.968Z,53.61
2023-02-19T07:53:52.855Z,53.67
2023-02-19T07:54:49.539Z,53.77
2023-02-19T07:55:46.138Z,52.94
2023-02-19T07:56:42.743Z,52.79
2023-02-19T07:57:39.347Z,53.20
2023-02-19T07:58:36.311Z,52.56
2023-02-19T07:59:32.901Z,52.10
2023-02-19T08:00:29.458Z,51.31
2023-02-19T08:01:44.723Z,51.46
2023-02-19T08:03:04.144Z,51.85
2023-02-19T08:04:00.750Z,51.42
2023-02-19T08:04:57.355Z,51.06
2023-02-19T08:05:55.070Z,51.00
2023-02-19T08:06:53.030Z,51.56
2023-02-19T08:07:49.578Z,51.48
2023-02-19T08:08:46.254Z,50.94
2023-02-19T08:09:42.918Z,50.36
2023-02-19T08:10:58.546Z,50.73
2023-02-19T08:12:14.050Z,50.62
2023-02-19T08:13:28.340Z,50.49
2023-02-19T08:14:27.831Z,50.30
2023-02-19T08:15:24.418Z,49.68
2023-02-19T08:16:33.070Z,49.55
2023-02-19T08:17:31.187Z,49.95
2023-02-19T08:18:30.332Z,49.85
2023-02-19T08:19:26.909Z,50.12
2023-02-19T08:20:23.518Z,49.53
2023-02-19T08:21:20.662Z,50.41
2023-02-19T08:22:17.386Z,50.44
2023-02-19T08:23:14.448Z,50.48
2023-02-19T08:24:11.280Z,50.39
2023-02-19T08:25:08.386Z,49.49
2023-02-19T08:26:05.905Z,49.72
2023-02-19T08:27:02.465Z,48.93
2023-02-19T08:28:00.423Z,49.27
2023-02-19T08:28:58.989Z,48.61
2023-02-19T08:29:55.646Z,48.73
2023-02-19T08:30:53.009Z,48.63
2023-02-19T08:31:49.827Z,49.20
2023-02-19T08:32:46.437Z,49.36
2023-02-19T08:33:43.028Z,49.01
2023-02-19T08:34:39.660Z,50.47
2023-02-19T08:35:38.964Z,49.13
2023-02-19T08:36:35.528Z,49.23
2023-02-19T08:37:32.119Z,48.30
2023-02-19T08:38:28.743Z,48.49
2023-02-19T08:39:25.345Z,48.51
2023-02-19T08:40:22.054Z,49.10
2023-02-19T08:41:18.701Z,48.19
2023-02-19T08:42:15.326Z,48.51
2023-02-19T08:43:14.472Z,48.87
2023-02-19T08:44:11.157Z,48.56
2023-02-19T08:45:08.401Z,48.43
2023-02-19T08:46:07.126Z,48.60
2023-02-19T08:47:05.112Z,47.53
2023-02-19T08:48:01.842Z,47.78
2023-02-19T08:48:58.462Z,47.64
2023-02-19T08:49:58.062Z,46.97
2023-02-19T08:50:59.514Z,47.24
2023-02-19T08:51:56.092Z,47.37
2023-02-19T08:52:55.351Z,47.25
2023-02-19T08:53:51.998Z,46.90
2023-02-19T08:54:48.590Z,46.93
2023-02-19T08:55:45.298Z,46.38
2023-02-19T08:56:41.966Z,46.72
2023-02-19T08:57:38.750Z,46.10
2023-02-19T08:58:36.157Z,46.23
2023-02-19T08:59:32.732Z,45.79
2023-02-19T09:00:29.369Z,46.47
2023-02-19T09:01:26.001Z,46.83
2023-02-19T09:02:23.931Z,46.01
2023-02-19T09:03:20.635Z,46.20
2023-02-19T09:04:17.247Z,45.59
2023-02-19T09:05:14.458Z,45.73
2023-02-19T09:06:17.038Z,46.58
2023-02-19T09:07:13.723Z,46.10
2023-02-19T09:08:10.976Z,46.05
2023-02-19T09:09:07.561Z,46.03
2023-02-19T09:10:05.394Z,45.42
2023-02-19T09:11:04.524Z,45.17
2023-02-19T09:12:01.256Z,45.80
2023-02-19T09:12:58.013Z,44.61
2023-02-19T09:13:56.722Z,45.90
2023-02-19T09:14:53.354Z,45.79
2023-02-19T09:15:49.962Z,45.99
2023-02-19T09:16:46.509Z,44.83
2023-02-19T09:17:43.059Z,44.94
2023-02-19T09:18:39.907Z,44.31
2023-02-19T09:19:37.567Z,45.80
2023-02-19T09:20:34.160Z,46.27
2023-02-19T09:21:31.515Z,44.83
2023-02-19T09:22:28.154Z,45.75
2023-02-19T09:23:24.705Z,45.25
2023-02-19T09:24:21.721Z,45.27
2023-02-19T09:25:18.361Z,44.54
2023-02-19T09:26:15.309Z,44.39
2023-02-19T09:27:16.966Z,45.35
2023-02-19T09:28:13.655Z,46.22
2023-02-19T09:29:10.235Z,45.18
2023-02-19T09:30:07.431Z,44.83
2023-02-19T09:31:10.134Z,45.43
2023-02-19T09:32:07.037Z,45.18
2023-02-19T09:33:05.679Z,45.27
2023-02-19T09:34:02.320Z,44.10
2023-02-19T09:34:59.113Z,44.64
2023-02-19T09:35:59.635Z,44.41
2023-02-19T09:36:56.238Z,44.32
2023-02-19T09:37:52.816Z,44.54
2023-02-19T09:38:49.448Z,45.54
2023-02-19T09:39:45.997Z,44.60
2023-02-19T09:40:42.671Z,43.83
2023-02-19T09:41:55.394Z,43.73
2023-02-19T09:42:52.128Z,43.78
2023-02-19T09:43:48.953Z,43.63
2023-02-19T09:44:52.235Z,43.99
2023-02-19T09:46:01.438Z,43.18
2023-02-19T09:47:00.297Z,43.62
2023-02-19T09:47:58.685Z,42.65
2023-02-19T09:49:01.799Z,43.34
2023-02-19T09:50:07.157Z,43.90
2023-02-19T09:51:04.960Z,42.77
2023-02-19T09:52:18.730Z,43.74
2023-02-19T09:53:25.169Z,43.84
2023-02-19T09:54:25.266Z,43.65
2023-02-19T09:55:36.751Z,42.19
2023-02-19T09:56:34.656Z,41.77
2023-02-19T09:57:34.659Z,42.33
2023-02-19T09:58:35.677Z,42.29
2023-02-19T09:59:40.245Z,42.82
2023-02-19T10:00:37.599Z,43.02
2023-02-19T10:01:39.228Z,42.69
2023-02-19T10:02:35.993Z,42.95
2023-02-19T10:03:38.510Z,42.69
2023-02-19T10:04:35.322Z,42.36
2023-02-19T10:05:33.661Z,43.03
2023-02-19T10:06:32.682Z,43.45
2023-02-19T10:07:39.377Z,52.51
2023-02-19T10:08:37.930Z,45.00
2023-02-19T10:09:35.962Z,46.90
2023-02-19T10:10:35.692Z,51.79
2023-02-19T10:11:32.451Z,49.62
2023-02-19T10:12:31.735Z,43.08
2023-02-19T10:13:42.710Z,43.17
2023-02-19T10:14:48.000Z,42.16
2023-02-19T10:15:46.859Z,36.46
2023-02-19T10:16:46.227Z,43.60
2023-02-19T10:17:42.963Z,42.12
2023-02-19T10:18:42.476Z,43.20
2023-02-19T10:19:39.079Z,40.31
2023-02-19T10:20:35.843Z,43.98
2023-02-19T10:21:32.482Z,43.56
2023-02-19T10:22:31.136Z,46.29
2023-02-19T10:23:28.247Z,44.38
2023-02-19T10:24:28.832Z,40.92
2023-02-19T10:25:25.538Z,44.27
2023-02-19T10:26:23.301Z,43.18
2023-02-19T10:27:20.078Z,38.11
2023-02-19T10:28:22.934Z,41.99
2023-02-19T10:29:21.665Z,45.15
2023-02-19T10:30:25.029Z,38.95
2023-02-19T10:31:25.023Z,39.99
2023-02-19T10:32:24.499Z,45.68
2023-02-19T10:33:22.317Z,43.15
2023-02-19T10:34:22.355Z,42.32
2023-02-19T10:35:19.070Z,39.82
2023-02-19T10:36:31.304Z,41.78
2023-02-19T10:37:29.380Z,40.60
2023-02-19T10:38:28.878Z,39.44
2023-02-19T10:39:36.573Z,41.38
2023-02-19T10:40:34.016Z,39.22
2023-02-19T10:41:31.088Z,38.82
2023-02-19T10:42:27.838Z,42.75
2023-02-19T10:43:33.120Z,42.96
2023-02-19T10:44:35.353Z,38.97
2023-02-19T10:46:18.041Z,41.98
2023-02-19T10:47:22.839Z,42.66
2023-02-19T10:48:30.726Z,38.49
2023-02-19T10:49:38.489Z,38.60
2023-02-19T10:50:47.005Z,39.45
2023-02-19T10:51:44.059Z,38.80
2023-02-19T10:52:42.451Z,39.99
2023-02-19T10:53:50.360Z,39.48
2023-02-19T10:54:55.217Z,40.29
2023-02-19T10:56:16.563Z,39.74
2023-02-19T10:57:31.305Z,39.44
2023-02-19T10:58:28.582Z,40.22
2023-02-19T10:59:27.729Z,39.63
2023-02-19T11:00:30.579Z,40.46
2023-02-19T11:01:27.980Z,40.75
2023-02-19T11:02:25.878Z,40.25
2023-02-19T11:03:24.083Z,41.51
2023-02-19T11:04:20.870Z,41.10
2023-02-19T11:05:20.640Z,39.73
2023-02-19T11:06:20.629Z,40.00
2023-02-19T11:07:18.764Z,39.58
2023-02-19T11:08:23.284Z,40.39
2023-02-19T11:09:32.462Z,40.57
2023-02-19T11:10:50.043Z,41.23
2023-02-19T11:11:52.274Z,40.09
2023-02-19T11:12:51.935Z,40.23
2023-02-19T11:13:48.680Z,40.38
2023-02-19T11:14:45.709Z,39.91
2023-02-19T11:15:43.357Z,39.33
2023-02-19T11:16:43.685Z,40.48
2023-02-19T11:17:40.418Z,40.06
2023-02-19T11:18:37.994Z,39.22
2023-02-19T11:19:38.205Z,39.78
2023-02-19T11:20:35.573Z,40.24
2023-02-19T11:21:33.529Z,39.63
2023-02-19T11:22:30.180Z,40.80
2023-02-19T11:23:34.210Z,40.82
2023-02-19T11:24:37.203Z,40.75
2023-02-19T11:25:33.965Z,40.22
2023-02-19T11:26:38.214Z,39.52
2023-02-19T11:27:34.866Z,39.32
2023-02-19T11:28:32.474Z,40.77
2023-02-19T11:29:34.687Z,39.59
2023-02-19T11:30:33.918Z,38.58
2023-02-19T11:31:33.234Z,38.77
2023-02-19T11:32:30.942Z,39.37
2023-02-19T11:33:27.972Z,38.63
2023-02-19T11:34:30.094Z,38.63
2023-02-19T11:35:26.684Z,38.67
2023-02-19T11:36:29.943Z,39.19
2023-02-19T11:37:26.972Z,39.77
2023-02-19T11:38:23.665Z,39.25
2023-02-19T11:39:27.201Z,39.35
2023-02-19T11:40:35.888Z,39.50
2023-02-19T11:41:50.900Z,39.69
2023-02-19T11:43:05.991Z,39.25
2023-02-19T11:44:18.849Z,38.65
2023-02-19T11:45:44.953Z,40.10
2023-02-19T11:46:50.122Z,39.33
2023-02-19T11:48:30.942Z,39.06
2023-02-19T11:49:36.606Z,39.11
2023-02-19T11:50:45.135Z,39.15
2023-02-19T11:52:03.211Z,38.52
2023-02-19T11:53:26.423Z,38.63
2023-02-19T11:54:41.742Z,39.59
2023-02-19T11:56:33.712Z,38.18
2023-02-19T11:57:42.485Z,37.48
2023-02-19T11:58:39.065Z,37.53
2023-02-19T11:59:54.330Z,38.04
2023-02-19T12:01:12.270Z,38.17
2023-02-19T12:02:12.570Z,37.11
2023-02-19T12:03:27.846Z,36.73
2023-02-19T12:05:08.828Z,38.19
2023-02-19T12:06:23.852Z,36.94
2023-02-19T12:07:22.203Z,37.36
2023-02-19T12:08:41.284Z,37.32
2023-02-19T12:09:57.899Z,37.14
2023-02-19T12:11:01.327Z,37.86
2023-02-19T12:12:07.016Z,38.16
2023-02-19T12:13:51.594Z,37.74
2023-02-19T12:15:02.383Z,38.67
2023-02-19T12:16:05.153Z,37.80
2023-02-19T12:17:29.916Z,37.86
2023-02-19T12:18:45.479Z,36.79
2023-02-19T12:20:00.533Z,37.08
2023-02-19T12:21:03.032Z,37.46
2023-02-19T12:22:15.180Z,37.53
2023-02-19T12:23:27.147Z,37.74
2023-02-19T12:24:23.738Z,37.91
2023-02-19T12:25:55.356Z,36.69
2023-02-19T12:27:14.134Z,36.99
2023-02-19T12:28:33.999Z,36.52
2023-02-19T12:30:06.057Z,37.25
2023-02-19T12:31:21.230Z,37.32
2023-02-19T12:32:29.908Z,37.58
2023-02-19T12:33:51.302Z,36.77
2023-02-19T12:35:10.922Z,37.66
2023-02-19T12:36:28.635Z,38.29
2023-02-19T12:37:58.965Z,36.06
2023-02-19T12:39:29.802Z,37.49
2023-02-19T12:41:01.603Z,37.14
2023-02-19T12:42:07.154Z,35.88
2023-02-19T12:43:09.465Z,37.04
2023-02-19T12:44:11.705Z,35.91
2023-02-19T12:45:21.696Z,36.06
2023-02-19T12:46:29.541Z,35.56
2023-02-19T12:47:33.308Z,36.05
2023-02-19T12:49:16.229Z,36.56
2023-02-19T12:50:12.802Z,36.77
2023-02-19T12:51:30.360Z,37.36
2023-02-19T12:52:31.886Z,37.06
2023-02-19T12:53:51.630Z,35.50
2023-02-19T12:54:55.801Z,35.63
2023-02-19T12:55:53.677Z,35.56
2023-02-19T12:57:16.020Z,36.53
2023-02-19T12:58:38.454Z,35.99
2023-02-19T12:59:56.140Z,35.86
2023-02-19T13:00:59.861Z,35.46
2023-02-19T13:02:18.509Z,35.35
2023-02-19T13:03:23.957Z,35.76
2023-02-19T13:04:49.711Z,35.84
2023-02-19T13:06:24.697Z,35.47
2023-02-19T13:07:28.184Z,35.64
2023-02-19T13:08:24.831Z,35.21
2023-02-19T13:09:29.317Z,35.07
2023-02-19T13:10:40.055Z,34.86
2023-02-19T13:11:50.673Z,35.15
2023-02-19T13:12:49.884Z,35.35
2023-02-19T13:13:51.792Z,35.05
2023-02-19T13:14:54.570Z,35.96